createdAt,value
2023-04-24T00:02:48.263Z,98869.53
2023-04-24T00:07:49.613Z,98864.91
2023-04-24T00:12:50.795Z,98861.31
2023-04-24T00:17:52.842Z,98853.03
2023-04-24T00:22:54.029Z,98852.59
2023-04-24T00:27:55.396Z,98860.94
2023-04-24T00:32:56.602Z,98849.66
2023-04-24T00:37:57.889Z,98851.22
2023-04-24T00:42:59.353Z,98843.75
2023-04-24T00:48:00.550Z,98833.69
2023-04-24T00:53:01.876Z,98834.13
2023-04-24T00:58:03.059Z,98829.78
2023-04-24T01:03:04.316Z,98841.81
2023-04-24T01:08:05.626Z,98836.44
2023-04-24T01:13:06.793Z,98840.16
2023-04-24T01:18:07.938Z,98837.06
2023-04-24T01:23:09.150Z,98838.06
2023-04-24T01:28:10.500Z,98835.31
2023-04-24T01:33:11.697Z,98841.22
2023-04-24T01:38:12.843Z,98845.59
2023-04-24T01:43:14.012Z,98855.09
2023-04-24T01:48:15.808Z,98866.88
2023-04-24T01:53:16.953Z,98866.97
2023-04-24T01:58:18.149Z,98872.59
2023-04-24T02:03:19.433Z,98859.41
2023-04-24T02:08:20.775Z,98852.31
2023-04-24T02:13:21.979Z,98860.88
2023-04-24T02:18:23.669Z,98871.19
2023-04-24T02:23:24.972Z,98879.63
2023-04-24T02:28:26.247Z,98883.09
2023-04-24T02:33:27.445Z,98890.22
2023-04-24T02:38:28.610Z,98894.09
2023-04-24T02:43:29.781Z,98893.97
2023-04-24T02:48:31.011Z,98899.41
2023-04-24T02:53:32.149Z,98900.78
2023-04-24T02:58:33.321Z,98905.56
2023-04-24T03:03:34.592Z,98920.19
2023-04-24T03:08:36.051Z,98918.94
2023-04-24T03:13:37.208Z,98912.75
2023-04-24T03:18:38.346Z,98918.59
2023-04-24T03:23:39.517Z,98930.59
2023-04-24T03:28:40.735Z,98921.66
2023-04-24T03:33:41.964Z,98925.84
2023-04-24T03:38:43.209Z,98930.59
2023-04-24T03:43:44.435Z,98939.13
2023-04-24T03:48:45.695Z,98924.16
2023-04-24T03:53:46.877Z,98927.06
2023-04-24T03:58:48.092Z,98927.25
2023-04-24T04:03:49.357Z,98931.41
2023-04-24T04:08:50.630Z,98938.03
2023-04-24T04:13:51.916Z,98932.34
2023-04-24T04:18:53.166Z,98937.59
2023-04-24T04:23:54.371Z,98936.03
2023-04-24T04:28:55.529Z,98949.44
2023-04-24T04:33:56.745Z,98945.44
2023-04-24T04:38:57.923Z,98955.91
2023-04-24T04:43:59.550Z,98952.84
2023-04-24T04:49:00.765Z,98952.38
2023-04-24T04:54:01.960Z,98962.69
2023-04-24T04:59:03.187Z,98959.63
2023-04-24T05:04:04.542Z,98954.38
2023-04-24T05:09:06.131Z,98958.09
2023-04-24T05:14:07.335Z,98955.00
2023-04-24T05:19:08.477Z,98958.72
2023-04-24T05:24:09.664Z,98965.78
2023-04-24T05:29:10.881Z,98969.97
2023-04-24T05:34:12.110Z,98977.06
2023-04-24T05:39:13.328Z,98991.69
2023-04-24T05:44:14.528Z,98992.94
2023-04-24T05:49:15.781Z,98993.69
2023-04-24T05:54:16.982Z,98990.44
2023-04-24T05:59:18.240Z,98995.22
2023-04-24T06:04:19.760Z,99000.78
2023-04-24T06:09:21.201Z,98992.91
2023-04-24T06:14:22.454Z,99009.84
2023-04-24T06:19:23.686Z,99006.47
2023-04-24T06:24:25.293Z,99005.41
2023-04-24T06:29:26.431Z,99001.81
2023-04-24T06:34:27.729Z,99008.28
2023-04-24T06:39:28.934Z,99008.91
2023-04-24T06:44:30.112Z,99011.97
2023-04-24T06:49:31.376Z,99010.72
2023-04-24T06:54:32.922Z,99003.47
2023-04-24T06:59:34.075Z,99007.31
2023-04-24T07:04:35.713Z,99020.06
2023-04-24T07:09:39.695Z,99022.50
2023-04-24T07:14:40.987Z,99023.13
2023-04-24T07:19:42.262Z,99023.44
2023-04-24T07:24:44.221Z,99032.63
2023-04-24T07:29:45.722Z,99042.63
2023-04-24T07:34:47.257Z,99046.91
2023-04-24T07:39:48.596Z,99047.53
2023-04-24T07:44:50.096Z,99046.91
2023-04-24T07:49:51.284Z,99060.75
2023-04-24T07:54:59.172Z,99073.59
2023-04-24T08:00:00.500Z,99089.22
2023-04-24T08:05:01.842Z,99091.78
2023-04-24T08:10:03.224Z,99102.78
2023-04-24T08:15:04.419Z,99113.66
2023-04-24T08:20:06.298Z,99130.88
2023-04-24T08:25:07.639Z,99136.81
2023-04-24T08:30:08.828Z,99139.44
2023-04-24T08:35:10.539Z,99137.81
2023-04-24T08:40:11.734Z,99133.69
2023-04-24T08:45:12.938Z,99131.78
2023-04-24T08:50:14.485Z,99149.69
2023-04-24T08:55:17.649Z,99159.06
2023-04-24T09:00:18.898Z,99173.38
2023-04-24T09:05:20.279Z,99154.06
2023-04-24T09:10:21.622Z,99196.47
2023-04-24T09:15:22.799Z,99194.66
2023-04-24T09:20:23.941Z,99214.34
2023-04-24T09:25:25.136Z,99216.69
2023-04-24T09:30:26.345Z,99238.53
2023-04-24T09:35:27.554Z,99237.94
2023-04-24T09:40:28.742Z,99258.75
2023-04-24T09:45:29.946Z,99275.50
2023-04-24T09:50:32.681Z,99292.88
2023-04-24T09:55:34.902Z,99305.88
2023-04-24T10:00:36.138Z,99319.03
2023-04-24T10:05:37.565Z,99318.22
2023-04-24T10:10:39.267Z,99325.00
2023-04-24T10:15:41.154Z,99334.84
2023-04-24T10:20:42.424Z,99340.13
2023-04-24T10:25:43.651Z,99343.97
2023-04-24T10:30:44.909Z,99350.75
2023-04-24T10:35:46.421Z,99352.91
2023-04-24T10:40:47.729Z,99367.66
2023-04-24T10:45:48.887Z,99356.88
2023-04-24T10:50:50.278Z,99377.25
2023-04-24T10:55:51.549Z,99372.06
2023-04-24T11:00:52.839Z,99382.97
2023-04-24T11:05:54.172Z,99391.47
2023-04-24T11:10:55.556Z,99405.34
2023-04-24T11:15:56.718Z,99412.09
2023-04-24T11:20:57.906Z,99418.97
2023-04-24T11:25:59.074Z,99420.84
2023-04-24T11:31:00.297Z,99429.56
2023-04-24T11:36:01.453Z,99442.09
2023-04-24T11:41:04.196Z,99440.66
2023-04-24T11:46:06.458Z,99439.34
2023-04-24T11:51:08.716Z,99438.88
2023-04-24T11:56:09.962Z,99444.00
2023-04-24T12:01:11.237Z,99447.06
2023-04-24T12:06:12.853Z,99445.38
2023-04-24T12:11:14.046Z,99438.72
2023-04-24T12:16:15.321Z,99446.81
2023-04-24T12:21:16.899Z,99458.31
2023-04-24T12:26:18.816Z,99466.53
2023-04-24T12:31:20.076Z,99481.50
2023-04-24T12:36:21.333Z,99486.31
2023-04-24T12:41:22.535Z,99474.19
2023-04-24T12:46:23.991Z,99482.44
2023-04-24T12:51:25.346Z,99489.09
2023-04-24T12:56:26.842Z,99472.88
2023-04-24T13:01:28.049Z,99485.22
2023-04-24T13:06:29.308Z,99478.59
2023-04-24T13:11:30.633Z,99494.59
2023-04-24T13:16:31.931Z,99494.00
2023-04-24T13:21:33.231Z,99488.00
2023-04-24T13:26:34.369Z,99496.44
2023-04-24T13:31:35.575Z,99494.25
2023-04-24T13:36:36.850Z,99497.47
2023-04-24T13:41:38.103Z,99493.53
2023-04-24T13:46:39.360Z,99502.38
2023-04-24T13:51:41.009Z,99498.31
2023-04-24T13:56:42.226Z,99508.66
2023-04-24T14:01:43.527Z,99513.19
2023-04-24T14:06:44.711Z,99514.59
2023-04-24T14:11:45.925Z,99514.75
2023-04-24T14:16:47.168Z,99500.50
2023-04-24T14:21:48.315Z,99509.91
2023-04-24T14:26:49.473Z,99512.28
2023-04-24T14:31:50.762Z,99516.44
2023-04-24T14:36:51.941Z,99521.59
2023-04-24T14:41:53.203Z,99511.72
2023-04-24T14:46:54.507Z,99513.91
2023-04-24T14:51:56.386Z,99532.41
2023-04-24T14:57:00.340Z,99534.16
2023-04-24T15:02:15.146Z,99530.13
2023-04-24T15:07:17.134Z,99533.81
2023-04-24T15:12:18.389Z,99538.78
2023-04-24T15:17:19.627Z,99538.19
2023-04-24T15:22:21.406Z,99538.88
2023-04-24T15:27:22.596Z,99537.34
2023-04-24T15:32:23.953Z,99543.38
2023-04-24T15:37:25.337Z,99538.59
2023-04-24T15:42:26.479Z,99540.38
2023-04-24T15:47:27.661Z,99539.63
2023-04-24T15:52:28.853Z,99534.50
2023-04-24T15:57:30.062Z,99541.25
2023-04-24T16:02:31.364Z,99536.19
2023-04-24T16:07:32.745Z,99540.97
2023-04-24T16:12:34.598Z,99538.84
2023-04-24T16:17:36.053Z,99537.66
2023-04-24T16:22:37.439Z,99535.81
2023-04-24T16:27:38.679Z,99531.31
2023-04-24T16:32:39.961Z,99532.91
2023-04-24T16:37:41.297Z,99532.94
2023-04-24T16:42:42.548Z,99543.00
2023-04-24T16:47:43.708Z,99541.31
2023-04-24T16:52:44.901Z,99538.34
2023-04-24T16:57:46.079Z,99544.75
2023-04-24T17:02:48.741Z,99547.22
2023-04-24T17:07:50.153Z,99551.38
2023-04-24T17:12:51.422Z,99552.28
2023-04-24T17:17:52.650Z,99559.41
2023-04-24T17:22:53.820Z,99560.34
2023-04-24T17:27:55.043Z,99572.25
2023-04-24T17:32:56.310Z,99569.78
2023-04-24T17:37:57.510Z,99570.22
2023-04-24T17:42:58.682Z,99566.06
2023-04-24T17:47:59.826Z,99567.16
2023-04-24T17:53:01.192Z,99583.81
2023-04-24T17:58:02.993Z,99579.16
2023-04-24T18:03:04.483Z,99578.16
2023-04-24T18:08:05.808Z,99584.94
2023-04-24T18:13:07.061Z,99583.94
2023-04-24T18:18:08.592Z,99590.22
2023-04-24T18:23:09.771Z,99603.09
2023-04-24T18:28:11.431Z,99606.41
2023-04-24T18:33:12.656Z,99612.78
2023-04-24T18:38:13.870Z,99609.16
2023-04-24T18:43:15.308Z,99623.56
2023-04-24T18:48:16.595Z,99621.47
2023-04-24T18:53:18.305Z,99633.81
2023-04-24T18:58:19.604Z,99644.81
2023-04-24T19:03:20.974Z,99647.84
2023-04-24T19:08:22.226Z,99648.03
2023-04-24T19:13:23.490Z,99649.31
2023-04-24T19:18:26.275Z,99653.75
2023-04-24T19:23:27.499Z,99656.88
2023-04-24T19:28:28.715Z,99664.03
2023-04-24T19:33:29.910Z,99661.97
2023-04-24T19:38:31.103Z,99670.56
2023-04-24T19:43:32.232Z,99671.69
2023-04-24T19:48:33.414Z,99673.06
2023-04-24T19:53:34.594Z,99664.06
2023-04-24T19:58:35.736Z,99667.66
2023-04-24T20:03:37.076Z,99675.94
2023-04-24T20:08:39.298Z,99670.41
2023-04-24T20:13:41.265Z,99674.31
2023-04-24T20:18:42.491Z,99668.63
2023-04-24T20:23:43.639Z,99666.59
2023-04-24T20:28:44.829Z,99671.97
2023-04-24T20:33:46.232Z,99673.91
2023-04-24T20:38:47.768Z,99685.81
2023-04-24T20:43:49.115Z,99683.84
2023-04-24T20:48:50.762Z,99684.00
2023-04-24T20:53:52.407Z,99687.53
2023-04-24T20:58:56.099Z,99687.97
2023-04-24T21:03:58.251Z,99687.56
2023-04-24T21:08:59.455Z,99689.59
2023-04-24T21:14:00.759Z,99693.06
2023-04-24T21:19:01.948Z,99693.41
2023-04-24T21:24:04.336Z,99693.56
2023-04-24T21:29:05.560Z,99694.41
2023-04-24T21:34:06.775Z,99691.38
2023-04-24T21:39:08.084Z,99697.47
2023-04-24T21:44:09.264Z,99688.69
2023-04-24T21:49:10.466Z,99691.91
2023-04-24T21:54:11.678Z,99690.34
2023-04-24T21:59:12.814Z,99684.63
2023-04-24T22:04:14.155Z,99692.25
2023-04-24T22:09:15.698Z,99689.91
2023-04-24T22:14:16.881Z,99691.78
2023-04-24T22:19:18.084Z,99686.34
2023-04-24T22:24:19.382Z,99691.63
2023-04-24T22:29:20.581Z,99688.03
2023-04-24T22:34:21.746Z,99692.53
2023-04-24T22:39:22.981Z,99679.81
2023-04-24T22:44:24.188Z,99680.69
2023-04-24T22:49:27.139Z,99681.78
2023-04-24T22:54:29.942Z,99683.44
2023-04-24T22:59:31.257Z,99675.72
2023-04-24T23:04:32.558Z,99680.19
2023-04-24T23:09:33.811Z,99677.63
2023-04-24T23:14:34.939Z,99680.28
2023-04-24T23:19:36.192Z,99682.19
2023-04-24T23:24:37.346Z,99685.06
2023-04-24T23:29:38.545Z,99675.94
2023-04-24T23:34:39.955Z,99687.22
2023-04-24T23:39:41.083Z,99678.09
2023-04-24T23:44:42.281Z,99690.38
2023-04-24T23:49:43.431Z,99695.13
2023-04-24T23:54:44.652Z,99697.22
2023-04-24T23:59:45.953Z,99691.56
